createdAt,value
2023-06-08T00:00:00.079Z,8.20
2023-06-08T00:02:26.725Z,8.23
2023-06-08T00:04:54.151Z,7.90
2023-06-08T00:07:22.993Z,8.70
2023-06-08T00:09:52.058Z,7.80
2023-06-08T00:12:19.377Z,8.10
2023-06-08T00:14:46.886Z,8.40
2023-06-08T00:17:14.650Z,8.10
2023-06-08T00:19:43.909Z,8.43
2023-06-08T00:22:13.780Z,8.87
2023-06-08T00:24:40.852Z,7.60
2023-06-08T00:27:07.900Z,8.30
2023-06-08T00:29:34.818Z,8.13
2023-06-08T00:32:01.549Z,8.97
2023-06-08T00:34:28.334Z,9.27
2023-06-08T00:36:54.901Z,8.90
2023-06-08T00:39:21.486Z,8.33
2023-06-08T00:41:48.075Z,8.23
2023-06-08T00:44:19.902Z,9.27
2023-06-08T00:46:46.756Z,9.20
2023-06-08T00:49:18.969Z,8.83
2023-06-08T00:51:46.618Z,9.37
2023-06-08T00:54:15.890Z,9.83
2023-06-08T00:56:43.639Z,9.80
2023-06-08T00:59:13.110Z,9.40
2023-06-08T01:01:40.200Z,10.10
2023-06-08T01:04:07.770Z,9.57
2023-06-08T01:06:37.769Z,8.87
2023-06-08T01:09:14.141Z,10.00
2023-06-08T01:12:05.031Z,9.17
2023-06-08T01:14:42.868Z,10.23
2023-06-08T01:17:13.769Z,9.47
2023-06-08T01:19:54.143Z,9.03
2023-06-08T01:22:27.871Z,8.97
2023-06-08T01:24:57.830Z,9.10
2023-06-08T01:27:27.467Z,9.67
2023-06-08T01:29:53.947Z,9.57
2023-06-08T01:32:20.581Z,9.40
2023-06-08T01:34:47.988Z,8.97
2023-06-08T01:37:24.942Z,10.73
2023-06-08T01:40:05.604Z,9.27
2023-06-08T01:42:33.922Z,8.70
2023-06-08T01:45:13.646Z,9.83
2023-06-08T01:47:46.469Z,9.20
2023-06-08T01:50:13.489Z,8.87
2023-06-08T01:52:42.902Z,8.90
2023-06-08T01:55:20.376Z,9.00
2023-06-08T01:57:47.672Z,9.17
2023-06-08T02:00:20.658Z,8.37
2023-06-08T02:02:47.437Z,9.40
2023-06-08T02:05:15.670Z,8.40
2023-06-08T02:07:43.404Z,8.90
2023-06-08T02:10:12.700Z,8.70
2023-06-08T02:12:40.093Z,9.27
2023-06-08T02:15:07.241Z,8.30
2023-06-08T02:17:37.709Z,9.33
2023-06-08T02:20:10.540Z,9.50
2023-06-08T02:22:38.607Z,9.10
2023-06-08T02:25:07.299Z,8.80
2023-06-08T02:27:37.383Z,8.97
2023-06-08T02:30:10.493Z,9.77
2023-06-08T02:32:37.945Z,8.80
2023-06-08T02:35:06.050Z,8.60
2023-06-08T02:37:34.150Z,10.00
2023-06-08T02:40:02.045Z,9.93
2023-06-08T02:42:28.617Z,8.80
2023-06-08T02:44:55.152Z,9.53
2023-06-08T02:47:31.990Z,9.57
2023-06-08T02:49:58.685Z,9.60
2023-06-08T02:52:26.011Z,9.40
2023-06-08T02:54:52.582Z,9.73
2023-06-08T02:57:19.167Z,9.77
2023-06-08T02:59:45.695Z,10.30
2023-06-08T03:02:12.657Z,9.63
2023-06-08T03:04:39.635Z,9.43
2023-06-08T03:07:10.574Z,10.03
2023-06-08T03:09:37.165Z,9.57
2023-06-08T03:12:04.608Z,9.43
2023-06-08T03:14:31.195Z,26.73
2023-06-08T03:17:06.557Z,15.07
2023-06-08T03:19:42.228Z,9.53
2023-06-08T03:22:10.186Z,9.50
2023-06-08T03:24:37.007Z,9.90
2023-06-08T03:27:04.534Z,11.00
2023-06-08T03:29:31.820Z,9.47
2023-06-08T03:31:59.511Z,9.97
2023-06-08T03:34:27.319Z,9.00
2023-06-08T03:36:54.820Z,9.00
2023-06-08T03:39:21.634Z,9.80
2023-06-08T03:41:48.381Z,9.43
2023-06-08T03:44:14.954Z,10.10
2023-06-08T03:47:02.996Z,9.30
2023-06-08T03:49:29.452Z,9.83
2023-06-08T03:51:57.062Z,10.37
2023-06-08T03:54:23.533Z,10.37
2023-06-08T03:56:50.040Z,9.80
2023-06-08T03:59:16.545Z,16.03
2023-06-08T04:01:43.082Z,12.13
2023-06-08T04:04:09.636Z,10.50
2023-06-08T04:06:39.394Z,10.40
2023-06-08T04:09:06.103Z,9.90
2023-06-08T04:11:32.639Z,10.37
2023-06-08T04:13:59.099Z,11.40
2023-06-08T04:16:25.862Z,10.93
2023-06-08T04:18:53.370Z,10.50
2023-06-08T04:21:20.009Z,9.90
2023-06-08T04:23:47.849Z,10.10
2023-06-08T04:26:14.860Z,10.40
2023-06-08T04:28:41.446Z,11.00
2023-06-08T04:31:08.052Z,10.60
2023-06-08T04:33:34.623Z,10.40
2023-06-08T04:36:01.460Z,10.13
2023-06-08T04:38:28.415Z,10.20
2023-06-08T04:40:55.756Z,11.67
2023-06-08T04:43:22.806Z,10.47
2023-06-08T04:46:00.891Z,10.50
2023-06-08T04:49:05.755Z,10.60
2023-06-08T04:51:32.232Z,9.93
2023-06-08T04:54:00.720Z,10.00
2023-06-08T04:56:30.450Z,9.20
2023-06-08T04:58:59.778Z,9.90
2023-06-08T05:01:26.377Z,10.70
2023-06-08T05:03:52.890Z,9.93
2023-06-08T05:06:19.459Z,9.77
2023-06-08T05:08:46.212Z,9.57
2023-06-08T05:11:13.266Z,10.50
2023-06-08T05:13:39.769Z,9.70
2023-06-08T05:16:06.249Z,10.87
2023-06-08T05:18:32.762Z,10.70
2023-06-08T05:20:59.309Z,10.20
2023-06-08T05:23:25.823Z,10.23
2023-06-08T05:25:52.496Z,9.93
2023-06-08T05:28:19.710Z,10.90
2023-06-08T05:30:46.236Z,10.63
2023-06-08T05:33:12.968Z,11.43
2023-06-08T05:35:39.520Z,10.03
2023-06-08T05:38:06.273Z,10.53
2023-06-08T05:40:32.822Z,10.77
2023-06-08T05:42:59.277Z,11.00
2023-06-08T05:45:26.913Z,10.80
2023-06-08T05:47:53.569Z,10.63
2023-06-08T05:50:21.257Z,10.93
2023-06-08T05:52:47.782Z,9.50
2023-06-08T05:55:14.397Z,10.03
2023-06-08T05:57:41.653Z,9.93
2023-06-08T06:00:13.106Z,10.73
2023-06-08T06:02:40.949Z,9.60
2023-06-08T06:05:09.807Z,9.83
2023-06-08T06:07:37.114Z,9.70
2023-06-08T06:10:05.001Z,9.70
2023-06-08T06:12:31.720Z,10.10
2023-06-08T06:14:58.244Z,8.83
2023-06-08T06:17:25.098Z,9.63
2023-06-08T06:19:51.621Z,10.50
2023-06-08T06:22:18.746Z,9.00
2023-06-08T06:24:45.801Z,9.13
2023-06-08T06:27:12.325Z,8.90
2023-06-08T06:29:38.878Z,8.87
2023-06-08T06:32:06.008Z,8.47
2023-06-08T06:34:32.547Z,7.97
2023-06-08T06:36:59.223Z,9.00
2023-06-08T06:39:25.713Z,8.70
2023-06-08T06:41:52.267Z,8.60
2023-06-08T06:44:18.814Z,8.40
2023-06-08T06:46:45.520Z,7.90
2023-06-08T06:49:36.535Z,8.47
2023-06-08T06:52:03.111Z,8.23
2023-06-08T06:54:29.691Z,8.50
2023-06-08T06:56:56.178Z,8.03
2023-06-08T06:59:23.688Z,7.90
2023-06-08T07:01:50.286Z,7.80
2023-06-08T07:04:17.202Z,8.07
2023-06-08T07:06:44.187Z,8.10
2023-06-08T07:09:11.362Z,8.50
2023-06-08T07:11:37.865Z,9.67
2023-06-08T07:14:04.400Z,14.97
2023-06-08T07:16:31.125Z,15.10
2023-06-08T07:18:57.773Z,9.70
2023-06-08T07:21:26.467Z,8.47
2023-06-08T07:24:25.827Z,8.43
2023-06-08T07:26:48.126Z,7.43
2023-06-08T07:29:14.755Z,8.40
2023-06-08T07:31:41.340Z,9.57
2023-06-08T07:34:10.708Z,8.03
2023-06-08T07:36:37.452Z,15.43
2023-06-08T07:39:04.980Z,9.47
2023-06-08T07:41:35.507Z,21.43
2023-06-08T07:44:03.292Z,8.50
2023-06-08T07:46:29.973Z,7.90
2023-06-08T07:48:56.516Z,7.47
2023-06-08T07:51:23.246Z,7.60
2023-06-08T07:53:50.188Z,7.60
2023-06-08T07:56:16.733Z,7.40
2023-06-08T07:58:43.253Z,7.90
2023-06-08T08:01:09.897Z,7.43
2023-06-08T08:03:38.785Z,7.30
2023-06-08T08:06:06.689Z,8.00
2023-06-08T08:08:33.957Z,8.77
2023-06-08T08:11:00.480Z,7.97
2023-06-08T08:13:27.129Z,7.33
2023-06-08T08:15:53.617Z,6.93
2023-06-08T08:18:20.220Z,8.20
2023-06-08T08:21:01.017Z,9.33
2023-06-08T08:23:27.647Z,10.97
2023-06-08T08:25:54.187Z,9.80
2023-06-08T08:28:20.681Z,10.43
2023-06-08T08:30:47.277Z,8.17
2023-06-08T08:33:17.340Z,7.90
2023-06-08T08:35:44.405Z,8.10
2023-06-08T08:38:10.915Z,7.67
2023-06-08T08:40:38.566Z,7.70
2023-06-08T08:43:08.033Z,8.23
2023-06-08T08:45:35.556Z,7.50
2023-06-08T08:48:02.964Z,10.40
2023-06-08T08:50:35.248Z,19.43
2023-06-08T08:53:03.069Z,16.33
2023-06-08T08:58:00.845Z,7.47
2023-06-08T09:00:27.555Z,7.80
2023-06-08T09:02:54.083Z,8.37
2023-06-08T09:05:20.802Z,7.10
2023-06-08T09:07:47.515Z,7.90
2023-06-08T09:10:22.798Z,6.80
2023-06-08T09:12:51.653Z,7.50
2023-06-08T09:15:32.953Z,16.87
2023-06-08T09:18:03.984Z,12.97
2023-06-08T09:20:35.461Z,7.70
2023-06-08T09:23:24.324Z,7.90
2023-06-08T09:25:52.292Z,8.10
2023-06-08T09:28:29.657Z,7.97
2023-06-08T09:31:01.764Z,8.17
2023-06-08T09:33:30.529Z,7.97
2023-06-08T09:36:00.323Z,7.70
2023-06-08T09:38:30.977Z,8.17
2023-06-08T09:41:12.928Z,7.20
2023-06-08T09:43:39.470Z,8.63
2023-06-08T09:46:07.118Z,8.20
2023-06-08T09:48:34.428Z,7.97
2023-06-08T09:51:01.410Z,7.50
2023-06-08T09:53:29.833Z,9.30
2023-06-08T09:55:59.744Z,8.57
2023-06-08T09:58:26.925Z,7.93
2023-06-08T10:01:01.381Z,7.67
2023-06-08T10:03:41.917Z,7.70
2023-06-08T10:06:10.218Z,6.90
2023-06-08T10:08:39.977Z,7.50
2023-06-08T10:11:10.103Z,7.90
2023-06-08T10:13:37.031Z,8.07
2023-06-08T10:16:03.909Z,7.20
2023-06-08T10:18:31.914Z,7.30
2023-06-08T10:20:59.290Z,6.97
2023-06-08T10:23:28.132Z,8.40
2023-06-08T10:25:56.901Z,9.37
2023-06-08T10:28:23.549Z,7.50
2023-06-08T10:30:50.179Z,7.60
2023-06-08T10:33:22.155Z,7.70
2023-06-08T10:36:07.460Z,7.60
2023-06-08T10:38:55.328Z,8.10
2023-06-08T10:41:40.715Z,9.53
2023-06-08T10:44:30.072Z,6.87
2023-06-08T10:47:02.432Z,7.50
2023-06-08T10:49:32.573Z,8.10
2023-06-08T10:52:01.086Z,8.00
2023-06-08T10:54:28.215Z,7.57
2023-06-08T10:57:15.307Z,8.87
2023-06-08T10:59:43.113Z,7.97
2023-06-08T11:02:09.801Z,7.97
2023-06-08T11:04:48.353Z,8.30
2023-06-08T11:07:24.837Z,8.60
2023-06-08T11:09:51.629Z,8.47
2023-06-08T11:12:18.162Z,7.43
2023-06-08T11:14:44.601Z,7.67
2023-06-08T11:17:11.312Z,7.80
2023-06-08T11:19:37.850Z,7.97
2023-06-08T11:22:04.540Z,7.77
2023-06-08T11:24:31.335Z,8.73
2023-06-08T11:27:05.332Z,7.83
2023-06-08T11:29:32.321Z,7.30
2023-06-08T11:32:11.668Z,8.60
2023-06-08T11:34:38.901Z,8.57
2023-06-08T11:37:05.747Z,8.20
2023-06-08T11:39:34.541Z,7.03
2023-06-08T11:42:01.518Z,8.00
2023-06-08T11:44:28.166Z,7.50
2023-06-08T11:46:54.990Z,7.57
2023-06-08T11:49:21.574Z,7.00
2023-06-08T11:51:51.165Z,6.80
2023-06-08T11:54:18.276Z,7.30
2023-06-08T11:56:48.451Z,8.20
2023-06-08T11:59:16.607Z,7.23
2023-06-08T12:01:59.750Z,7.17
2023-06-08T12:04:34.771Z,7.00
2023-06-08T12:07:10.599Z,7.67
2023-06-08T12:09:38.132Z,6.20
2023-06-08T12:12:12.282Z,6.43
2023-06-08T12:14:49.335Z,6.53
2023-06-08T12:17:17.028Z,6.70
2023-06-08T12:19:44.924Z,6.80
2023-06-08T12:22:11.914Z,6.80
2023-06-08T12:24:39.108Z,7.13
2023-06-08T12:27:07.797Z,7.50
2023-06-08T12:29:35.329Z,7.70
2023-06-08T12:32:02.021Z,7.73
2023-06-08T12:34:28.502Z,7.83
2023-06-08T12:36:55.134Z,6.90
2023-06-08T12:39:21.720Z,7.10
2023-06-08T12:41:48.527Z,6.90
2023-06-08T12:44:15.021Z,6.63
2023-06-08T12:46:41.716Z,5.90
2023-06-08T12:49:08.644Z,6.67
2023-06-08T12:51:35.262Z,6.23
2023-06-08T12:54:02.024Z,7.03
2023-06-08T12:56:28.501Z,13.13
2023-06-08T12:58:55.206Z,11.77
2023-06-08T13:01:21.964Z,6.90
2023-06-08T13:03:48.755Z,7.27
2023-06-08T13:06:15.673Z,6.27
2023-06-08T13:08:42.198Z,6.03
2023-06-08T13:11:09.086Z,6.67
2023-06-08T13:13:35.629Z,6.80
2023-06-08T13:16:02.771Z,10.63
2023-06-08T13:18:30.876Z,10.93
2023-06-08T13:20:57.905Z,6.57
2023-06-08T13:23:25.879Z,6.13
2023-06-08T13:25:55.264Z,5.57
2023-06-08T13:28:21.774Z,8.03
2023-06-08T13:30:48.418Z,8.10
2023-06-08T13:33:15.064Z,6.83
2023-06-08T13:35:44.734Z,5.70
2023-06-08T13:38:12.351Z,6.43
2023-06-08T13:40:39.988Z,5.93
2023-06-08T13:43:11.045Z,5.23
2023-06-08T13:45:37.956Z,5.53
2023-06-08T13:48:04.883Z,6.27
2023-06-08T13:50:31.496Z,5.97
2023-06-08T13:52:58.548Z,5.23
2023-06-08T13:55:26.720Z,5.40
2023-06-08T13:57:53.254Z,5.83
2023-06-08T14:00:20.435Z,5.77
2023-06-08T14:02:48.618Z,5.37
2023-06-08T14:05:19.572Z,5.57
2023-06-08T14:07:46.591Z,5.53
2023-06-08T14:10:13.538Z,5.80
2023-06-08T14:12:40.621Z,4.87
2023-06-08T14:15:10.685Z,5.63
2023-06-08T14:17:37.208Z,5.67
2023-06-08T14:20:04.258Z,5.30
2023-06-08T14:22:30.939Z,5.20
2023-06-08T14:24:57.428Z,5.70
2023-06-08T14:27:23.876Z,5.60
2023-06-08T14:29:50.340Z,5.20
2023-06-08T14:32:16.872Z,4.93
2023-06-08T14:34:43.433Z,5.33
2023-06-08T14:37:10.012Z,5.30
2023-06-08T14:39:37.598Z,5.23
2023-06-08T14:42:07.358Z,5.50
2023-06-08T14:44:35.759Z,5.23
2023-06-08T14:47:02.921Z,4.90
2023-06-08T14:49:29.739Z,8.77
2023-06-08T14:51:56.264Z,5.43
2023-06-08T14:54:22.819Z,5.57
2023-06-08T14:56:49.494Z,5.60
2023-06-08T14:59:16.034Z,7.47
2023-06-08T15:01:42.762Z,12.13
2023-06-08T15:04:12.102Z,5.80
2023-06-08T15:06:38.696Z,5.47
2023-06-08T15:09:05.330Z,5.27
2023-06-08T15:11:31.830Z,5.50
2023-06-08T15:13:58.402Z,4.70
2023-06-08T15:16:25.028Z,5.57
2023-06-08T15:18:51.590Z,5.17
2023-06-08T15:21:18.128Z,5.70
2023-06-08T15:23:46.859Z,4.70
2023-06-08T15:26:13.780Z,5.67
2023-06-08T15:28:40.448Z,4.93
2023-06-08T15:31:07.253Z,5.60
2023-06-08T15:33:33.756Z,5.80
2023-06-08T15:36:00.317Z,5.13
2023-06-08T15:38:26.865Z,5.10
2023-06-08T15:40:55.494Z,4.90
2023-06-08T15:43:22.031Z,4.70
2023-06-08T15:45:48.678Z,5.30
2023-06-08T15:48:15.183Z,8.93
2023-06-08T15:50:41.748Z,12.00
2023-06-08T15:53:08.274Z,10.37
2023-06-08T15:55:34.829Z,5.63
2023-06-08T15:58:01.520Z,4.80
2023-06-08T16:00:28.264Z,4.87
2023-06-08T16:02:54.872Z,3.93
2023-06-08T16:05:21.391Z,4.80
2023-06-08T16:07:47.916Z,4.97
2023-06-08T16:10:14.558Z,4.43
2023-06-08T16:12:41.074Z,5.30
2023-06-08T16:15:08.424Z,4.60
2023-06-08T16:17:35.127Z,5.23
2023-06-08T16:20:01.866Z,4.77
2023-06-08T16:22:28.368Z,4.37
2023-06-08T16:24:54.960Z,4.43
2023-06-08T16:27:21.446Z,4.93
2023-06-08T16:29:48.358Z,4.03
2023-06-08T16:32:15.208Z,4.23
2023-06-08T16:34:42.082Z,3.73
2023-06-08T16:37:08.618Z,3.60
2023-06-08T16:39:35.261Z,3.97
2023-06-08T16:42:01.795Z,3.80
2023-06-08T16:44:28.288Z,4.03
2023-06-08T16:46:55.780Z,3.90
2023-06-08T16:49:22.397Z,3.37
2023-06-08T16:51:49.409Z,3.50
2023-06-08T16:54:15.939Z,3.90
2023-06-08T16:56:42.497Z,4.10
2023-06-08T16:59:09.927Z,3.30
2023-06-08T17:01:37.984Z,3.43
2023-06-08T17:04:04.617Z,5.33
2023-06-08T17:06:31.074Z,14.97
2023-06-08T17:08:57.592Z,3.80
2023-06-08T17:11:24.161Z,3.50
2023-06-08T17:13:50.731Z,3.40
2023-06-08T17:16:17.288Z,4.00
2023-06-08T17:18:44.311Z,4.20
2023-06-08T17:21:12.354Z,4.10
2023-06-08T17:23:40.134Z,4.00
2023-06-08T17:26:07.213Z,4.10
2023-06-08T17:28:33.736Z,3.33
2023-06-08T17:31:00.285Z,3.80
2023-06-08T17:33:26.794Z,4.30
2023-06-08T17:35:53.317Z,4.00
2023-06-08T17:38:19.975Z,7.30
2023-06-08T17:40:46.593Z,6.17
2023-06-08T17:43:13.193Z,5.03
2023-06-08T17:45:40.727Z,4.30
2023-06-08T17:48:07.333Z,3.80
2023-06-08T17:50:34.011Z,4.10
2023-06-08T17:53:09.704Z,4.13
2023-06-08T17:55:39.410Z,3.77
2023-06-08T17:58:06.160Z,4.50
2023-06-08T18:00:32.618Z,4.83
2023-06-08T18:02:59.137Z,4.50
2023-06-08T18:05:25.851Z,4.33
2023-06-08T18:07:52.438Z,4.20
2023-06-08T18:10:18.995Z,4.03
2023-06-08T18:12:45.529Z,4.37
2023-06-08T18:15:12.079Z,4.50
2023-06-08T18:17:39.060Z,3.87
2023-06-08T18:20:06.915Z,4.40
2023-06-08T18:22:34.125Z,4.50
2023-06-08T18:25:03.596Z,4.67
2023-06-08T18:27:32.405Z,4.80
2023-06-08T18:29:58.908Z,4.83
2023-06-08T18:32:25.489Z,4.93
2023-06-08T18:34:52.088Z,5.50
2023-06-08T18:37:18.655Z,4.53
2023-06-08T18:39:58.334Z,5.40
2023-06-08T18:42:32.356Z,4.80
2023-06-08T18:44:59.915Z,5.30
2023-06-08T18:47:27.154Z,4.23
2023-06-08T18:49:53.727Z,4.20
2023-06-08T18:52:20.254Z,4.50
2023-06-08T18:54:47.120Z,3.97
2023-06-08T18:57:14.400Z,3.80
2023-06-08T18:59:42.472Z,4.57
2023-06-08T19:02:09.328Z,8.90
2023-06-08T19:04:35.906Z,21.93
2023-06-08T19:07:03.542Z,33.67
2023-06-08T19:09:30.338Z,15.87
2023-06-08T19:11:57.213Z,18.77
2023-06-08T19:14:23.839Z,9.00
2023-06-08T19:16:50.688Z,7.77
2023-06-08T19:19:17.892Z,6.60
2023-06-08T19:21:45.041Z,7.40
2023-06-08T19:24:12.062Z,5.60
2023-06-08T19:26:39.066Z,4.87
2023-06-08T19:29:08.520Z,4.97
2023-06-08T19:31:35.341Z,4.63
2023-06-08T19:34:02.354Z,4.47
2023-06-08T19:36:28.846Z,3.87
2023-06-08T19:38:55.640Z,4.40
2023-06-08T19:41:22.961Z,4.50
2023-06-08T19:43:50.988Z,4.80
2023-06-08T19:46:21.555Z,4.03
2023-06-08T19:48:50.875Z,4.20
2023-06-08T19:51:17.536Z,4.17
2023-06-08T19:53:44.196Z,4.00
2023-06-08T19:56:10.855Z,3.63
2023-06-08T19:58:37.462Z,4.13
2023-06-08T20:01:04.023Z,4.40
2023-06-08T20:03:30.656Z,4.20
2023-06-08T20:05:57.330Z,4.50
2023-06-08T20:08:25.433Z,4.60
2023-06-08T20:10:52.854Z,4.60
2023-06-08T20:13:19.383Z,4.87
2023-06-08T20:15:46.223Z,4.40
2023-06-08T20:18:17.527Z,4.90
2023-06-08T20:20:44.067Z,4.80
2023-06-08T20:23:10.606Z,4.33
2023-06-08T20:25:37.102Z,4.80
2023-06-08T20:28:03.754Z,36.07
2023-06-08T20:30:30.408Z,8.80
2023-06-08T20:32:57.029Z,8.47
2023-06-08T20:35:23.596Z,20.00
2023-06-08T20:37:50.099Z,15.87
2023-06-08T20:40:16.634Z,12.60
2023-06-08T20:42:43.187Z,10.57
2023-06-08T20:45:10.157Z,30.37
2023-06-08T20:47:36.657Z,23.30
2023-06-08T20:50:04.348Z,5.10
2023-06-08T20:52:31.171Z,5.20
2023-06-08T20:54:57.661Z,4.30
2023-06-08T20:57:24.265Z,5.40
2023-06-08T20:59:50.795Z,5.43
2023-06-08T21:02:17.335Z,4.80
2023-06-08T21:04:46.018Z,4.67
2023-06-08T21:07:13.136Z,4.90
2023-06-08T21:09:39.871Z,5.00
2023-06-08T21:12:07.626Z,5.07
2023-06-08T21:14:34.179Z,5.10
2023-06-08T21:17:00.765Z,4.87
2023-06-08T21:19:27.254Z,4.87
2023-06-08T21:21:53.907Z,10.13
2023-06-08T21:24:27.780Z,7.93
2023-06-08T21:26:57.747Z,4.80
2023-06-08T21:29:24.371Z,4.63
2023-06-08T21:31:50.856Z,4.80
2023-06-08T21:34:17.400Z,5.07
2023-06-08T21:36:43.928Z,5.70
2023-06-08T21:39:10.450Z,5.53
2023-06-08T21:41:36.963Z,5.00
2023-06-08T21:44:03.698Z,5.30
2023-06-08T21:46:30.261Z,4.60
2023-06-08T21:48:56.739Z,5.33
2023-06-08T21:51:23.309Z,5.13
2023-06-08T21:53:49.854Z,5.10
2023-06-08T21:56:16.447Z,6.30
2023-06-08T21:58:42.918Z,4.80
2023-06-08T22:01:09.458Z,5.17
2023-06-08T22:03:36.142Z,5.20
2023-06-08T22:06:02.621Z,5.63
2023-06-08T22:08:29.095Z,4.93
2023-06-08T22:10:55.576Z,5.40
2023-06-08T22:13:22.078Z,5.10
2023-06-08T22:15:48.601Z,5.17
2023-06-08T22:18:16.173Z,5.00
2023-06-08T22:20:43.485Z,5.17
2023-06-08T22:23:10.619Z,4.83
2023-06-08T22:25:40.882Z,5.23
2023-06-08T22:28:07.626Z,4.70
2023-06-08T22:30:34.169Z,5.17
2023-06-08T22:33:00.767Z,5.20
2023-06-08T22:35:27.258Z,5.43
2023-06-08T22:37:53.781Z,5.37
2023-06-08T22:40:20.376Z,5.60
2023-06-08T22:42:46.866Z,5.23
2023-06-08T22:45:13.380Z,5.30
2023-06-08T22:47:42.257Z,5.40
2023-06-08T22:50:09.176Z,5.00
2023-06-08T22:52:36.093Z,5.30
2023-06-08T22:55:03.430Z,4.83
2023-06-08T22:57:30.482Z,5.47
2023-06-08T22:59:57.146Z,6.23
2023-06-08T23:02:23.779Z,4.90
2023-06-08T23:04:50.440Z,5.27
2023-06-08T23:07:17.878Z,5.50
2023-06-08T23:09:49.651Z,5.50
2023-06-08T23:12:17.486Z,4.97
2023-06-08T23:14:50.025Z,5.90
2023-06-08T23:17:17.930Z,5.37
2023-06-08T23:19:49.211Z,4.80
2023-06-08T23:22:20.134Z,5.23
2023-06-08T23:24:48.261Z,5.50
2023-06-08T23:27:15.438Z,5.40
2023-06-08T23:29:42.325Z,5.57
2023-06-08T23:32:09.051Z,5.90
2023-06-08T23:34:36.019Z,5.20
2023-06-08T23:37:02.510Z,5.00
2023-06-08T23:39:29.006Z,5.47
2023-06-08T23:41:55.540Z,5.20
2023-06-08T23:44:22.052Z,5.10
2023-06-08T23:46:48.910Z,5.10
2023-06-08T23:49:15.940Z,5.33
2023-06-08T23:51:42.427Z,6.30
2023-06-08T23:54:09.243Z,5.43
2023-06-08T23:56:35.875Z,5.37
2023-06-08T23:59:02.354Z,5.53
